sensor_id;sensor_type;location;lat;lon;timestamp;temperature;humidity
9125;DHT22;4597;48.730;9.114;2023-07-29T00:01:59;18.00;99.90
9125;DHT22;4597;48.730;9.114;2023-07-29T00:04:25;18.10;99.90
9125;DHT22;4597;48.730;9.114;2023-07-29T00:06:50;18.10;99.90
9125;DHT22;4597;48.730;9.114;2023-07-29T00:09:16;18.10;99.90
9125;DHT22;4597;48.730;9.114;2023-07-29T00:11:41;18.10;99.90
9125;DHT22;4597;48.730;9.114;2023-07-29T00:14:07;18.10;99.90
9125;DHT22;4597;48.730;9.114;2023-07-29T00:16:32;18.10;99.90
9125;DHT22;4597;48.730;9.114;2023-07-29T00:18:58;18.10;99.90
9125;DHT22;4597;48.730;9.114;2023-07-29T00:21:23;18.10;99.90
9125;DHT22;4597;48.730;9.114;2023-07-29T00:23:49;18.10;99.90
9125;DHT22;4597;48.730;9.114;2023-07-29T00:26:14;18.20;99.90
9125;DHT22;4597;48.730;9.114;2023-07-29T00:28:40;18.20;99.90
9125;DHT22;4597;48.730;9.114;2023-07-29T00:31:05;18.20;99.90
9125;DHT22;4597;48.730;9.114;2023-07-29T00:33:31;18.20;99.90
9125;DHT22;4597;48.730;9.114;2023-07-29T00:35:56;18.20;99.90
9125;DHT22;4597;48.730;9.114;2023-07-29T00:38:22;18.20;99.90
9125;DHT22;4597;48.730;9.114;2023-07-29T00:40:47;18.20;99.90
9125;DHT22;4597;48.730;9.114;2023-07-29T00:43:13;18.20;99.90
9125;DHT22;4597;48.730;9.114;2023-07-29T00:45:39;18.20;99.90
9125;DHT22;4597;48.730;9.114;2023-07-29T00:48:05;18.20;99.90
9125;DHT22;4597;48.730;9.114;2023-07-29T00:50:31;18.20;99.90
9125;DHT22;4597;48.730;9.114;2023-07-29T00:52:57;18.20;99.90
9125;DHT22;4597;48.730;9.114;2023-07-29T00:55:23;18.20;99.90
9125;DHT22;4597;48.730;9.114;2023-07-29T00:57:50;18.20;99.90
9125;DHT22;4597;48.730;9.114;2023-07-29T01:00:18;18.20;99.90
9125;DHT22;4597;48.730;9.114;2023-07-29T01:02:44;18.20;99.90
9125;DHT22;4597;48.730;9.114;2023-07-29T01:05:12;18.20;99.90
9125;DHT22;4597;48.730;9.114;2023-07-29T01:08:03;18.20;99.90
9125;DHT22;4597;48.730;9.114;2023-07-29T01:10:58;18.20;99.90
9125;DHT22;4597;48.730;9.114;2023-07-29T01:13:44;18.20;99.90
9125;DHT22;4597;48.730;9.114;2023-07-29T01:16:19;18.20;99.90
9125;DHT22;4597;48.730;9.114;2023-07-29T01:18:47;18.20;99.90
9125;DHT22;4597;48.730;9.114;2023-07-29T01:21:17;18.20;99.90
9125;DHT22;4597;48.730;9.114;2023-07-29T01:23:42;18.20;99.90
9125;DHT22;4597;48.730;9.114;2023-07-29T01:26:08;18.20;99.90
9125;DHT22;4597;48.730;9.114;2023-07-29T01:28:34;18.20;99.90
9125;DHT22;4597;48.730;9.114;2023-07-29T01:33:42;18.20;99.90
9125;DHT22;4597;48.730;9.114;2023-07-29T01:36:18;18.20;99.90
9125;DHT22;4597;48.730;9.114;2023-07-29T01:38:47;18.20;99.90
9125;DHT22;4597;48.730;9.114;2023-07-29T01:41:13;18.10;99.90
9125;DHT22;4597;48.730;9.114;2023-07-29T01:43:39;18.20;99.90
9125;DHT22;4597;48.730;9.114;2023-07-29T01:46:12;18.20;99.90
9125;DHT22;4597;48.730;9.114;2023-07-29T01:48:38;18.20;99.90
9125;DHT22;4597;48.730;9.114;2023-07-29T01:51:04;18.20;99.90
9125;DHT22;4597;48.730;9.114;2023-07-29T01:53:30;18.20;99.90
9125;DHT22;4597;48.730;9.114;2023-07-29T01:55:55;18.20;99.90
9125;DHT22;4597;48.730;9.114;2023-07-29T01:58:22;18.20;99.90
9125;DHT22;4597;48.730;9.114;2023-07-29T02:00:47;18.20;99.90
9125;DHT22;4597;48.730;9.114;2023-07-29T02:03:13;18.10;99.90
9125;DHT22;4597;48.730;9.114;2023-07-29T02:05:39;18.10;99.90
9125;DHT22;4597;48.730;9.114;2023-07-29T02:08:04;18.10;99.90
9125;DHT22;4597;48.730;9.114;2023-07-29T02:10:30;18.10;99.90
9125;DHT22;4597;48.730;9.114;2023-07-29T02:12:55;18.10;99.90
9125;DHT22;4597;48.730;9.114;2023-07-29T02:15:21;18.10;99.90
9125;DHT22;4597;48.730;9.114;2023-07-29T02:17:46;18.10;99.90
9125;DHT22;4597;48.730;9.114;2023-07-29T02:20:12;18.10;99.90
9125;DHT22;4597;48.730;9.114;2023-07-29T02:22:38;18.10;99.90
9125;DHT22;4597;48.730;9.114;2023-07-29T02:25:04;18.00;99.90
9125;DHT22;4597;48.730;9.114;2023-07-29T02:27:29;18.10;99.90
9125;DHT22;4597;48.730;9.114;2023-07-29T02:29:55;18.00;99.90
9125;DHT22;4597;48.730;9.114;2023-07-29T02:32:21;18.10;99.90
9125;DHT22;4597;48.730;9.114;2023-07-29T02:34:47;18.00;99.90
9125;DHT22;4597;48.730;9.114;2023-07-29T02:37:12;18.00;99.90
9125;DHT22;4597;48.730;9.114;2023-07-29T02:39:38;18.00;99.90
9125;DHT22;4597;48.730;9.114;2023-07-29T02:42:03;18.00;99.90
9125;DHT22;4597;48.730;9.114;2023-07-29T02:44:29;18.00;99.90
9125;DHT22;4597;48.730;9.114;2023-07-29T02:46:55;18.00;99.90
9125;DHT22;4597;48.730;9.114;2023-07-29T02:49:22;18.00;99.90
9125;DHT22;4597;48.730;9.114;2023-07-29T02:51:47;18.00;99.90
9125;DHT22;4597;48.730;9.114;2023-07-29T02:54:13;18.00;99.90
9125;DHT22;4597;48.730;9.114;2023-07-29T02:56:38;18.00;99.90
9125;DHT22;4597;48.730;9.114;2023-07-29T02:59:04;18.00;99.90
9125;DHT22;4597;48.730;9.114;2023-07-29T03:01:30;18.00;99.90
9125;DHT22;4597;48.730;9.114;2023-07-29T03:03:56;18.00;99.90
9125;DHT22;4597;48.730;9.114;2023-07-29T03:06:21;18.00;99.90
9125;DHT22;4597;48.730;9.114;2023-07-29T03:08:47;18.00;99.90
9125;DHT22;4597;48.730;9.114;2023-07-29T03:11:14;18.00;99.90
9125;DHT22;4597;48.730;9.114;2023-07-29T03:13:40;18.00;99.90
9125;DHT22;4597;48.730;9.114;2023-07-29T03:16:16;18.10;99.90
9125;DHT22;4597;48.730;9.114;2023-07-29T03:18:43;18.00;99.90
9125;DHT22;4597;48.730;9.114;2023-07-29T03:21:09;18.00;99.90
9125;DHT22;4597;48.730;9.114;2023-07-29T03:23:35;18.10;99.90
9125;DHT22;4597;48.730;9.114;2023-07-29T03:26:02;18.10;99.90
9125;DHT22;4597;48.730;9.114;2023-07-29T03:28:32;18.10;99.90
9125;DHT22;4597;48.730;9.114;2023-07-29T03:30:58;18.10;99.90
9125;DHT22;4597;48.730;9.114;2023-07-29T03:33:25;18.10;99.90
9125;DHT22;4597;48.730;9.114;2023-07-29T03:35:51;18.10;99.90
9125;DHT22;4597;48.730;9.114;2023-07-29T03:38:17;18.10;99.90
9125;DHT22;4597;48.730;9.114;2023-07-29T03:40:43;18.10;99.90
9125;DHT22;4597;48.730;9.114;2023-07-29T03:43:08;18.10;99.90
9125;DHT22;4597;48.730;9.114;2023-07-29T03:45:35;18.10;99.90
9125;DHT22;4597;48.730;9.114;2023-07-29T03:48:01;18.10;99.90
9125;DHT22;4597;48.730;9.114;2023-07-29T03:50:27;18.10;99.90
9125;DHT22;4597;48.730;9.114;2023-07-29T03:52:53;18.10;99.90
9125;DHT22;4597;48.730;9.114;2023-07-29T03:55:18;18.10;99.90
9125;DHT22;4597;48.730;9.114;2023-07-29T03:57:44;18.20;99.90
9125;DHT22;4597;48.730;9.114;2023-07-29T04:00:10;18.20;99.90
9125;DHT22;4597;48.730;9.114;2023-07-29T04:02:36;18.20;99.90
9125;DHT22;4597;48.730;9.114;2023-07-29T04:05:05;18.20;99.90
9125;DHT22;4597;48.730;9.114;2023-07-29T04:07:31;18.20;99.90
9125;DHT22;4597;48.730;9.114;2023-07-29T04:09:57;18.20;99.90
9125;DHT22;4597;48.730;9.114;2023-07-29T04:12:23;18.20;99.90
9125;DHT22;4597;48.730;9.114;2023-07-29T04:14:49;18.20;99.90
9125;DHT22;4597;48.730;9.114;2023-07-29T04:17:14;18.20;99.90
9125;DHT22;4597;48.730;9.114;2023-07-29T04:19:40;18.20;99.90
9125;DHT22;4597;48.730;9.114;2023-07-29T04:22:06;18.20;99.90
9125;DHT22;4597;48.730;9.114;2023-07-29T04:24:31;18.20;99.90
9125;DHT22;4597;48.730;9.114;2023-07-29T04:26:57;18.20;99.90
9125;DHT22;4597;48.730;9.114;2023-07-29T04:29:22;18.20;99.90
9125;DHT22;4597;48.730;9.114;2023-07-29T04:31:52;18.20;99.90
9125;DHT22;4597;48.730;9.114;2023-07-29T04:34:18;18.20;99.90
9125;DHT22;4597;48.730;9.114;2023-07-29T04:36:45;18.20;99.90
9125;DHT22;4597;48.730;9.114;2023-07-29T04:39:12;18.30;99.90
9125;DHT22;4597;48.730;9.114;2023-07-29T04:41:37;18.20;99.90
9125;DHT22;4597;48.730;9.114;2023-07-29T04:44:03;18.30;99.90
9125;DHT22;4597;48.730;9.114;2023-07-29T04:46:28;18.30;99.90
9125;DHT22;4597;48.730;9.114;2023-07-29T04:48:54;18.20;99.90
9125;DHT22;4597;48.730;9.114;2023-07-29T04:51:20;18.20;99.90
9125;DHT22;4597;48.730;9.114;2023-07-29T04:53:45;18.20;99.90
9125;DHT22;4597;48.730;9.114;2023-07-29T04:56:11;18.30;99.90
9125;DHT22;4597;48.730;9.114;2023-07-29T04:58:37;18.30;99.90
9125;DHT22;4597;48.730;9.114;2023-07-29T05:01:03;18.40;99.90
9125;DHT22;4597;48.730;9.114;2023-07-29T05:03:29;18.40;99.90
9125;DHT22;4597;48.730;9.114;2023-07-29T05:05:55;18.40;99.90
9125;DHT22;4597;48.730;9.114;2023-07-29T05:08:21;18.40;99.90
9125;DHT22;4597;48.730;9.114;2023-07-29T05:10:51;18.40;99.90
9125;DHT22;4597;48.730;9.114;2023-07-29T05:13:17;18.50;99.90
9125;DHT22;4597;48.730;9.114;2023-07-29T05:15:43;18.50;99.90
9125;DHT22;4597;48.730;9.114;2023-07-29T05:18:08;18.50;99.90
9125;DHT22;4597;48.730;9.114;2023-07-29T05:20:34;18.50;99.90
9125;DHT22;4597;48.730;9.114;2023-07-29T05:22:59;18.60;99.90
9125;DHT22;4597;48.730;9.114;2023-07-29T05:25:25;18.60;99.90
9125;DHT22;4597;48.730;9.114;2023-07-29T05:27:51;18.60;99.90
9125;DHT22;4597;48.730;9.114;2023-07-29T05:30:16;18.60;99.90
9125;DHT22;4597;48.730;9.114;2023-07-29T05:32:42;18.60;99.90
9125;DHT22;4597;48.730;9.114;2023-07-29T05:35:08;18.60;99.90
9125;DHT22;4597;48.730;9.114;2023-07-29T05:37:34;18.60;99.90
9125;DHT22;4597;48.730;9.114;2023-07-29T05:39:59;18.70;99.90
9125;DHT22;4597;48.730;9.114;2023-07-29T05:42:24;18.70;99.90
9125;DHT22;4597;48.730;9.114;2023-07-29T05:44:50;18.80;99.90
9125;DHT22;4597;48.730;9.114;2023-07-29T05:47:16;18.80;99.90
9125;DHT22;4597;48.730;9.114;2023-07-29T05:49:41;18.80;99.90
9125;DHT22;4597;48.730;9.114;2023-07-29T05:52:07;18.90;99.90
9125;DHT22;4597;48.730;9.114;2023-07-29T05:54:33;18.90;99.90
9125;DHT22;4597;48.730;9.114;2023-07-29T05:56:58;19.00;99.90
9125;DHT22;4597;48.730;9.114;2023-07-29T05:59:24;19.00;99.90
9125;DHT22;4597;48.730;9.114;2023-07-29T06:01:49;19.00;99.90
9125;DHT22;4597;48.730;9.114;2023-07-29T06:04:15;19.00;99.90
9125;DHT22;4597;48.730;9.114;2023-07-29T06:06:40;19.10;99.90
9125;DHT22;4597;48.730;9.114;2023-07-29T06:09:06;19.10;99.90
9125;DHT22;4597;48.730;9.114;2023-07-29T06:11:31;19.10;99.90
9125;DHT22;4597;48.730;9.114;2023-07-29T06:13:57;19.20;99.90
9125;DHT22;4597;48.730;9.114;2023-07-29T06:16:23;19.20;99.90
9125;DHT22;4597;48.730;9.114;2023-07-29T06:18:49;19.30;99.90
9125;DHT22;4597;48.730;9.114;2023-07-29T06:21:14;19.30;99.90
9125;DHT22;4597;48.730;9.114;2023-07-29T06:23:43;19.30;99.90
9125;DHT22;4597;48.730;9.114;2023-07-29T06:26:09;19.30;99.90
9125;DHT22;4597;48.730;9.114;2023-07-29T06:28:34;19.40;99.90
9125;DHT22;4597;48.730;9.114;2023-07-29T06:31:00;19.30;99.90
9125;DHT22;4597;48.730;9.114;2023-07-29T06:33:25;19.30;99.90
9125;DHT22;4597;48.730;9.114;2023-07-29T06:35:51;19.30;99.90
9125;DHT22;4597;48.730;9.114;2023-07-29T06:38:16;19.30;99.90
9125;DHT22;4597;48.730;9.114;2023-07-29T06:40:49;19.30;99.90
9125;DHT22;4597;48.730;9.114;2023-07-29T06:43:15;19.30;99.90
9125;DHT22;4597;48.730;9.114;2023-07-29T06:45:40;19.30;99.90
9125;DHT22;4597;48.730;9.114;2023-07-29T06:48:06;19.30;99.90
9125;DHT22;4597;48.730;9.114;2023-07-29T06:50:31;19.30;99.90
9125;DHT22;4597;48.730;9.114;2023-07-29T06:52:57;19.30;99.90
9125;DHT22;4597;48.730;9.114;2023-07-29T06:55:22;19.40;99.90
9125;DHT22;4597;48.730;9.114;2023-07-29T06:57:48;19.40;99.90
9125;DHT22;4597;48.730;9.114;2023-07-29T07:00:14;19.30;99.90
9125;DHT22;4597;48.730;9.114;2023-07-29T07:02:39;19.30;99.90
9125;DHT22;4597;48.730;9.114;2023-07-29T07:05:05;19.30;99.90
9125;DHT22;4597;48.730;9.114;2023-07-29T07:07:30;19.30;99.90
9125;DHT22;4597;48.730;9.114;2023-07-29T07:09:56;19.30;99.90
9125;DHT22;4597;48.730;9.114;2023-07-29T07:12:22;19.30;99.90
9125;DHT22;4597;48.730;9.114;2023-07-29T07:14:47;19.30;99.90
9125;DHT22;4597;48.730;9.114;2023-07-29T07:17:13;19.30;99.90
9125;DHT22;4597;48.730;9.114;2023-07-29T07:19:39;19.40;99.90
9125;DHT22;4597;48.730;9.114;2023-07-29T07:22:04;19.40;99.90
9125;DHT22;4597;48.730;9.114;2023-07-29T07:24:30;19.50;99.90
9125;DHT22;4597;48.730;9.114;2023-07-29T07:26:55;19.50;99.90
9125;DHT22;4597;48.730;9.114;2023-07-29T07:29:21;19.60;99.90
9125;DHT22;4597;48.730;9.114;2023-07-29T07:31:51;19.60;99.90
9125;DHT22;4597;48.730;9.114;2023-07-29T07:34:21;19.60;99.90
9125;DHT22;4597;48.730;9.114;2023-07-29T07:36:47;19.70;99.90
9125;DHT22;4597;48.730;9.114;2023-07-29T07:39:13;19.80;99.90
9125;DHT22;4597;48.730;9.114;2023-07-29T07:41:38;19.90;99.90
9125;DHT22;4597;48.730;9.114;2023-07-29T07:44:04;19.90;99.90
9125;DHT22;4597;48.730;9.114;2023-07-29T07:46:29;20.00;99.90
9125;DHT22;4597;48.730;9.114;2023-07-29T07:48:55;20.10;99.90
9125;DHT22;4597;48.730;9.114;2023-07-29T07:51:20;20.30;99.90
9125;DHT22;4597;48.730;9.114;2023-07-29T07:53:46;20.40;99.90
9125;DHT22;4597;48.730;9.114;2023-07-29T07:56:12;20.50;99.90
9125;DHT22;4597;48.730;9.114;2023-07-29T07:58:38;20.60;99.90
9125;DHT22;4597;48.730;9.114;2023-07-29T08:01:04;20.80;99.90
9125;DHT22;4597;48.730;9.114;2023-07-29T08:03:31;20.90;99.90
9125;DHT22;4597;48.730;9.114;2023-07-29T08:05:57;21.00;99.90
9125;DHT22;4597;48.730;9.114;2023-07-29T08:08:23;21.20;99.90
9125;DHT22;4597;48.730;9.114;2023-07-29T08:10:48;21.20;99.90
9125;DHT22;4597;48.730;9.114;2023-07-29T08:13:14;21.20;99.90
9125;DHT22;4597;48.730;9.114;2023-07-29T08:15:39;21.20;99.90
9125;DHT22;4597;48.730;9.114;2023-07-29T08:18:06;21.20;99.90
9125;DHT22;4597;48.730;9.114;2023-07-29T08:20:32;21.10;99.90
9125;DHT22;4597;48.730;9.114;2023-07-29T08:22:58;21.00;99.90
9125;DHT22;4597;48.730;9.114;2023-07-29T08:25:23;20.90;99.90
9125;DHT22;4597;48.730;9.114;2023-07-29T08:27:49;21.00;99.90
9125;DHT22;4597;48.730;9.114;2023-07-29T08:30:14;21.00;99.90
9125;DHT22;4597;48.730;9.114;2023-07-29T08:32:41;21.10;99.90
9125;DHT22;4597;48.730;9.114;2023-07-29T08:35:07;21.10;99.90
9125;DHT22;4597;48.730;9.114;2023-07-29T08:37:33;21.10;99.90
9125;DHT22;4597;48.730;9.114;2023-07-29T08:39:59;21.10;99.90
9125;DHT22;4597;48.730;9.114;2023-07-29T08:42:29;21.20;99.90
9125;DHT22;4597;48.730;9.114;2023-07-29T08:44:56;21.20;99.90
9125;DHT22;4597;48.730;9.114;2023-07-29T08:47:21;21.40;99.90
9125;DHT22;4597;48.730;9.114;2023-07-29T08:49:47;21.50;99.90
9125;DHT22;4597;48.730;9.114;2023-07-29T08:52:14;21.60;99.90
9125;DHT22;4597;48.730;9.114;2023-07-29T08:54:40;21.70;99.90
9125;DHT22;4597;48.730;9.114;2023-07-29T08:57:06;21.80;99.90
9125;DHT22;4597;48.730;9.114;2023-07-29T08:59:33;21.90;99.90
9125;DHT22;4597;48.730;9.114;2023-07-29T09:01:58;21.90;99.90
9125;DHT22;4597;48.730;9.114;2023-07-29T09:04:24;21.80;99.90
9125;DHT22;4597;48.730;9.114;2023-07-29T09:06:51;21.80;99.90
9125;DHT22;4597;48.730;9.114;2023-07-29T09:09:16;21.80;99.90
9125;DHT22;4597;48.730;9.114;2023-07-29T09:11:43;22.00;99.90
9125;DHT22;4597;48.730;9.114;2023-07-29T09:14:09;22.00;99.90
9125;DHT22;4597;48.730;9.114;2023-07-29T09:16:35;22.10;99.90
9125;DHT22;4597;48.730;9.114;2023-07-29T09:19:02;22.10;99.90
9125;DHT22;4597;48.730;9.114;2023-07-29T09:21:29;22.20;99.90
9125;DHT22;4597;48.730;9.114;2023-07-29T09:23:55;22.30;99.90
9125;DHT22;4597;48.730;9.114;2023-07-29T09:26:25;22.40;99.90
9125;DHT22;4597;48.730;9.114;2023-07-29T09:28:55;22.40;99.90
9125;DHT22;4597;48.730;9.114;2023-07-29T09:31:28;22.20;99.90
9125;DHT22;4597;48.730;9.114;2023-07-29T09:34:01;22.10;99.90
9125;DHT22;4597;48.730;9.114;2023-07-29T09:36:31;22.00;99.90
9125;DHT22;4597;48.730;9.114;2023-07-29T09:38:57;21.80;99.90
9125;DHT22;4597;48.730;9.114;2023-07-29T09:41:27;21.70;99.90
9125;DHT22;4597;48.730;9.114;2023-07-29T09:43:58;21.60;99.90
9125;DHT22;4597;48.730;9.114;2023-07-29T09:46:25;21.50;99.90
9125;DHT22;4597;48.730;9.114;2023-07-29T09:48:53;21.30;99.90
9125;DHT22;4597;48.730;9.114;2023-07-29T09:51:21;21.30;99.90
9125;DHT22;4597;48.730;9.114;2023-07-29T09:53:47;20.90;99.90
9125;DHT22;4597;48.730;9.114;2023-07-29T09:56:14;20.50;99.90
9125;DHT22;4597;48.730;9.114;2023-07-29T09:58:40;20.40;99.90
9125;DHT22;4597;48.730;9.114;2023-07-29T10:01:08;20.10;99.90
9125;DHT22;4597;48.730;9.114;2023-07-29T10:03:34;20.00;99.90
9125;DHT22;4597;48.730;9.114;2023-07-29T10:06:05;19.90;99.90
9125;DHT22;4597;48.730;9.114;2023-07-29T10:08:31;19.90;99.90
9125;DHT22;4597;48.730;9.114;2023-07-29T10:10:59;20.00;99.90
9125;DHT22;4597;48.730;9.114;2023-07-29T10:13:26;20.00;99.90
9125;DHT22;4597;48.730;9.114;2023-07-29T10:15:53;19.90;99.90
9125;DHT22;4597;48.730;9.114;2023-07-29T10:18:18;19.90;99.90
9125;DHT22;4597;48.730;9.114;2023-07-29T10:20:45;19.90;99.90
9125;DHT22;4597;48.730;9.114;2023-07-29T10:23:12;19.90;99.90
9125;DHT22;4597;48.730;9.114;2023-07-29T10:25:43;20.10;99.90
9125;DHT22;4597;48.730;9.114;2023-07-29T10:28:12;20.10;99.90
9125;DHT22;4597;48.730;9.114;2023-07-29T10:30:40;20.30;99.90
9125;DHT22;4597;48.730;9.114;2023-07-29T10:33:06;20.30;99.90
9125;DHT22;4597;48.730;9.114;2023-07-29T10:35:33;20.40;99.90
9125;DHT22;4597;48.730;9.114;2023-07-29T10:38:00;20.50;99.90
9125;DHT22;4597;48.730;9.114;2023-07-29T10:40:26;20.50;99.90
9125;DHT22;4597;48.730;9.114;2023-07-29T10:43:12;20.60;99.90
9125;DHT22;4597;48.730;9.114;2023-07-29T10:45:39;20.70;99.90
9125;DHT22;4597;48.730;9.114;2023-07-29T10:48:06;20.90;99.90
9125;DHT22;4597;48.730;9.114;2023-07-29T10:50:34;21.00;99.90
9125;DHT22;4597;48.730;9.114;2023-07-29T10:52:59;21.10;99.90
9125;DHT22;4597;48.730;9.114;2023-07-29T10:55:33;21.00;99.90
9125;DHT22;4597;48.730;9.114;2023-07-29T10:58:16;21.20;99.90
9125;DHT22;4597;48.730;9.114;2023-07-29T11:00:44;21.20;99.90
9125;DHT22;4597;48.730;9.114;2023-07-29T11:03:12;21.20;99.90
9125;DHT22;4597;48.730;9.114;2023-07-29T11:05:47;21.20;99.90
9125;DHT22;4597;48.730;9.114;2023-07-29T11:08:30;21.30;99.90
9125;DHT22;4597;48.730;9.114;2023-07-29T11:13:29;21.20;99.90
9125;DHT22;4597;48.730;9.114;2023-07-29T11:15:55;21.20;99.90
9125;DHT22;4597;48.730;9.114;2023-07-29T11:18:26;21.10;99.90
9125;DHT22;4597;48.730;9.114;2023-07-29T11:20:53;21.20;99.90
9125;DHT22;4597;48.730;9.114;2023-07-29T11:23:19;21.30;99.90
9125;DHT22;4597;48.730;9.114;2023-07-29T11:25:45;21.30;99.90
9125;DHT22;4597;48.730;9.114;2023-07-29T11:28:11;21.40;99.90
9125;DHT22;4597;48.730;9.114;2023-07-29T11:30:39;21.40;99.90
9125;DHT22;4597;48.730;9.114;2023-07-29T11:33:05;21.50;99.90
9125;DHT22;4597;48.730;9.114;2023-07-29T11:35:32;21.50;99.90
9125;DHT22;4597;48.730;9.114;2023-07-29T11:37:57;21.60;99.90
9125;DHT22;4597;48.730;9.114;2023-07-29T11:40:23;21.70;99.90
9125;DHT22;4597;48.730;9.114;2023-07-29T11:42:50;21.80;99.90
9125;DHT22;4597;48.730;9.114;2023-07-29T11:45:16;21.90;99.90
9125;DHT22;4597;48.730;9.114;2023-07-29T11:47:42;22.00;99.90
9125;DHT22;4597;48.730;9.114;2023-07-29T11:50:09;22.10;99.90
9125;DHT22;4597;48.730;9.114;2023-07-29T11:52:36;22.10;99.90
9125;DHT22;4597;48.730;9.114;2023-07-29T11:55:03;22.20;99.90
9125;DHT22;4597;48.730;9.114;2023-07-29T11:57:31;22.30;99.90
9125;DHT22;4597;48.730;9.114;2023-07-29T11:59:57;22.40;99.90
9125;DHT22;4597;48.730;9.114;2023-07-29T12:02:24;22.50;99.90
9125;DHT22;4597;48.730;9.114;2023-07-29T12:04:51;22.50;99.90
9125;DHT22;4597;48.730;9.114;2023-07-29T12:07:17;22.60;99.90
9125;DHT22;4597;48.730;9.114;2023-07-29T12:09:44;22.70;99.90
9125;DHT22;4597;48.730;9.114;2023-07-29T12:12:10;22.80;99.90
9125;DHT22;4597;48.730;9.114;2023-07-29T12:14:35;22.70;99.90
9125;DHT22;4597;48.730;9.114;2023-07-29T12:17:02;22.80;99.90
9125;DHT22;4597;48.730;9.114;2023-07-29T12:19:36;22.80;99.90
9125;DHT22;4597;48.730;9.114;2023-07-29T12:22:03;22.90;99.90
9125;DHT22;4597;48.730;9.114;2023-07-29T12:24:33;22.90;99.90
9125;DHT22;4597;48.730;9.114;2023-07-29T12:26:59;23.00;99.90
9125;DHT22;4597;48.730;9.114;2023-07-29T12:29:25;23.00;99.90
9125;DHT22;4597;48.730;9.114;2023-07-29T12:32:02;23.10;99.90
9125;DHT22;4597;48.730;9.114;2023-07-29T12:34:29;23.20;99.90
9125;DHT22;4597;48.730;9.114;2023-07-29T12:36:57;23.30;99.90
9125;DHT22;4597;48.730;9.114;2023-07-29T12:39:27;23.30;99.90
9125;DHT22;4597;48.730;9.114;2023-07-29T12:41:55;23.30;99.90
9125;DHT22;4597;48.730;9.114;2023-07-29T12:44:23;23.30;99.90
9125;DHT22;4597;48.730;9.114;2023-07-29T12:46:48;23.20;99.90
9125;DHT22;4597;48.730;9.114;2023-07-29T12:49:14;23.20;99.90
9125;DHT22;4597;48.730;9.114;2023-07-29T12:51:40;23.30;99.90
9125;DHT22;4597;48.730;9.114;2023-07-29T12:54:06;23.30;99.90
9125;DHT22;4597;48.730;9.114;2023-07-29T12:56:31;23.30;99.90
9125;DHT22;4597;48.730;9.114;2023-07-29T12:58:58;23.30;99.90
9125;DHT22;4597;48.730;9.114;2023-07-29T13:01:24;23.30;99.90
9125;DHT22;4597;48.730;9.114;2023-07-29T13:03:50;23.40;99.90
9125;DHT22;4597;48.730;9.114;2023-07-29T13:06:16;23.50;99.90
9125;DHT22;4597;48.730;9.114;2023-07-29T13:08:42;23.70;99.90
9125;DHT22;4597;48.730;9.114;2023-07-29T13:11:07;23.70;99.90
9125;DHT22;4597;48.730;9.114;2023-07-29T13:13:33;23.80;99.90
9125;DHT22;4597;48.730;9.114;2023-07-29T13:15:59;23.80;99.90
9125;DHT22;4597;48.730;9.114;2023-07-29T13:18:24;23.80;99.90
9125;DHT22;4597;48.730;9.114;2023-07-29T13:20:50;23.90;99.90
9125;DHT22;4597;48.730;9.114;2023-07-29T13:23:16;24.00;99.90
9125;DHT22;4597;48.730;9.114;2023-07-29T13:25:42;24.10;99.90
9125;DHT22;4597;48.730;9.114;2023-07-29T13:28:09;24.20;99.90
9125;DHT22;4597;48.730;9.114;2023-07-29T13:30:35;24.10;99.90
9125;DHT22;4597;48.730;9.114;2023-07-29T13:33:00;24.10;99.90
9125;DHT22;4597;48.730;9.114;2023-07-29T13:35:26;24.20;99.90
9125;DHT22;4597;48.730;9.114;2023-07-29T13:37:52;24.20;99.90
9125;DHT22;4597;48.730;9.114;2023-07-29T13:40:17;24.20;99.90
9125;DHT22;4597;48.730;9.114;2023-07-29T13:42:43;24.20;99.90
9125;DHT22;4597;48.730;9.114;2023-07-29T13:45:08;24.20;99.90
9125;DHT22;4597;48.730;9.114;2023-07-29T13:47:34;24.20;99.90
9125;DHT22;4597;48.730;9.114;2023-07-29T13:50:00;24.30;99.90
9125;DHT22;4597;48.730;9.114;2023-07-29T13:52:26;24.40;99.90
9125;DHT22;4597;48.730;9.114;2023-07-29T13:54:51;24.70;99.90
9125;DHT22;4597;48.730;9.114;2023-07-29T13:57:17;25.20;99.90
9125;DHT22;4597;48.730;9.114;2023-07-29T13:59:42;25.50;99.90
9125;DHT22;4597;48.730;9.114;2023-07-29T14:02:08;25.40;99.90
9125;DHT22;4597;48.730;9.114;2023-07-29T14:04:34;25.50;99.90
9125;DHT22;4597;48.730;9.114;2023-07-29T14:06:59;25.50;99.90
9125;DHT22;4597;48.730;9.114;2023-07-29T14:09:26;25.70;99.90
9125;DHT22;4597;48.730;9.114;2023-07-29T14:11:51;26.00;99.90
9125;DHT22;4597;48.730;9.114;2023-07-29T14:14:17;26.40;99.60
9125;DHT22;4597;48.730;9.114;2023-07-29T14:16:42;26.70;98.10
9125;DHT22;4597;48.730;9.114;2023-07-29T14:19:08;27.00;95.50
9125;DHT22;4597;48.730;9.114;2023-07-29T14:21:33;27.20;91.60
9125;DHT22;4597;48.730;9.114;2023-07-29T14:23:59;27.50;85.50
9125;DHT22;4597;48.730;9.114;2023-07-29T14:26:25;28.00;82.80
9125;DHT22;4597;48.730;9.114;2023-07-29T14:28:50;28.70;79.40
9125;DHT22;4597;48.730;9.114;2023-07-29T14:31:16;29.00;74.10
9125;DHT22;4597;48.730;9.114;2023-07-29T14:33:43;29.10;70.80
9125;DHT22;4597;48.730;9.114;2023-07-29T14:36:08;28.20;72.80
9125;DHT22;4597;48.730;9.114;2023-07-29T14:38:35;28.80;70.40
9125;DHT22;4597;48.730;9.114;2023-07-29T14:41:01;30.20;63.20
9125;DHT22;4597;48.730;9.114;2023-07-29T14:43:26;31.00;56.70
9125;DHT22;4597;48.730;9.114;2023-07-29T14:45:52;31.00;56.30
9125;DHT22;4597;48.730;9.114;2023-07-29T14:48:17;31.30;52.50
9125;DHT22;4597;48.730;9.114;2023-07-29T14:50:43;31.10;51.90
9125;DHT22;4597;48.730;9.114;2023-07-29T14:53:09;31.30;50.80
9125;DHT22;4597;48.730;9.114;2023-07-29T14:55:36;31.30;48.50
9125;DHT22;4597;48.730;9.114;2023-07-29T14:58:02;32.30;45.10
9125;DHT22;4597;48.730;9.114;2023-07-29T15:00:28;32.70;43.10
9125;DHT22;4597;48.730;9.114;2023-07-29T15:02:53;33.20;41.00
9125;DHT22;4597;48.730;9.114;2023-07-29T15:05:19;32.60;40.50
9125;DHT22;4597;48.730;9.114;2023-07-29T15:07:44;32.10;42.00
9125;DHT22;4597;48.730;9.114;2023-07-29T15:10:10;31.70;42.80
9125;DHT22;4597;48.730;9.114;2023-07-29T15:12:35;31.00;45.60
9125;DHT22;4597;48.730;9.114;2023-07-29T15:15:01;30.60;44.70
9125;DHT22;4597;48.730;9.114;2023-07-29T15:17:27;30.40;48.40
9125;DHT22;4597;48.730;9.114;2023-07-29T15:19:52;30.20;47.10
9125;DHT22;4597;48.730;9.114;2023-07-29T15:22:18;29.80;48.80
9125;DHT22;4597;48.730;9.114;2023-07-29T15:24:43;29.80;49.50
9125;DHT22;4597;48.730;9.114;2023-07-29T15:27:10;29.60;49.70
9125;DHT22;4597;48.730;9.114;2023-07-29T15:29:35;29.50;49.00
9125;DHT22;4597;48.730;9.114;2023-07-29T15:32:01;29.80;48.90
9125;DHT22;4597;48.730;9.114;2023-07-29T15:34:27;30.00;48.60
9125;DHT22;4597;48.730;9.114;2023-07-29T15:36:57;29.80;48.50
9125;DHT22;4597;48.730;9.114;2023-07-29T15:39:23;29.70;49.50
9125;DHT22;4597;48.730;9.114;2023-07-29T15:41:48;29.50;50.10
9125;DHT22;4597;48.730;9.114;2023-07-29T15:44:14;29.50;49.70
9125;DHT22;4597;48.730;9.114;2023-07-29T15:46:39;29.60;50.10
9125;DHT22;4597;48.730;9.114;2023-07-29T15:49:04;29.70;51.40
9125;DHT22;4597;48.730;9.114;2023-07-29T15:51:31;29.80;50.10
9125;DHT22;4597;48.730;9.114;2023-07-29T15:53:56;30.00;49.70
9125;DHT22;4597;48.730;9.114;2023-07-29T15:56:22;30.00;49.40
9125;DHT22;4597;48.730;9.114;2023-07-29T15:58:47;29.90;49.20
9125;DHT22;4597;48.730;9.114;2023-07-29T16:01:13;30.10;50.00
9125;DHT22;4597;48.730;9.114;2023-07-29T16:03:38;30.10;50.20